Columbus, Ohio
Traffic Map
Current Weather Conditions
Columbus, Ohio
Overcast Freezing Rain
Overcast
30°
Feels Like: 25°
Wind Chill: 25° Ceiling: 400
Heat Index: 30° Visibility: 3mi
Dew Point: 30° Wind: 5mph
Humidity: 100% Direction: 120° (ESE)
Pressure: 30.15in Gusts: 0mph
Raw Report DataKCMH 011007Z 12004KT 3SM -FZRA BR BKN004 OVC027 M01/M01 A3015 RMK AO2 P0000
Traffic Incident Summary
Active as of:
Severity:
Category:
InformationThere was an issue retrieving the traffic information for this location. Please try a different location or try again shortly.
Advertisements
Track Severe Weather on mobile